createdAt,value
2023-03-05T00:01:29.528Z,13.55
2023-03-05T00:03:57.531Z,13.65
2023-03-05T00:06:29.100Z,12.90
2023-03-05T00:08:58.257Z,13.13
2023-03-05T00:11:30.182Z,15.52
2023-03-05T00:13:59.305Z,15.13
2023-03-05T00:16:27.952Z,13.00
2023-03-05T00:19:00.427Z,13.48
2023-03-05T00:21:32.090Z,13.27
2023-03-05T00:24:03.232Z,12.05
2023-03-05T00:26:31.402Z,13.48
2023-03-05T00:28:58.838Z,13.70
2023-03-05T00:31:32.287Z,15.20
2023-03-05T00:34:06.457Z,13.73
2023-03-05T00:36:34.727Z,13.90
2023-03-05T00:39:02.019Z,13.18
2023-03-05T00:41:28.876Z,14.30
2023-03-05T00:43:56.059Z,15.00
2023-03-05T00:46:23.372Z,14.20
2023-03-05T00:48:50.459Z,13.20
2023-03-05T00:51:17.375Z,13.73
2023-03-05T00:53:44.354Z,12.35
2023-03-05T00:56:11.890Z,13.38
2023-03-05T00:58:39.127Z,13.07
2023-03-05T01:01:07.195Z,13.40
2023-03-05T01:03:36.219Z,12.98
2023-03-05T01:06:10.677Z,13.43
2023-03-05T01:08:37.962Z,14.35
2023-03-05T01:11:06.745Z,15.02
2023-03-05T01:13:33.735Z,14.73
2023-03-05T01:16:01.198Z,13.95
2023-03-05T01:18:28.680Z,13.60
2023-03-05T01:20:55.604Z,13.77
2023-03-05T01:23:22.635Z,14.05
2023-03-05T01:26:00.350Z,13.48
2023-03-05T01:28:27.951Z,15.38
2023-03-05T01:30:55.160Z,12.63
2023-03-05T01:33:22.152Z,13.70
2023-03-05T01:35:49.943Z,14.20
2023-03-05T01:38:17.797Z,13.68
2023-03-05T01:40:45.234Z,14.07
2023-03-05T01:43:12.065Z,13.93
2023-03-05T01:46:18.714Z,14.00
2023-03-05T01:48:56.196Z,12.70
2023-03-05T01:51:29.142Z,13.63
2023-03-05T01:53:59.227Z,13.35
2023-03-05T01:56:29.288Z,13.98
2023-03-05T01:59:03.436Z,12.65
2023-03-05T02:01:44.487Z,14.20
2023-03-05T02:04:17.163Z,12.73
2023-03-05T02:06:45.555Z,13.73
2023-03-05T02:09:13.343Z,15.13
2023-03-05T02:11:41.122Z,14.90
2023-03-05T02:14:10.263Z,13.52
2023-03-05T02:16:38.749Z,13.60
2023-03-05T02:19:12.317Z,14.50
2023-03-05T02:21:43.897Z,14.20
2023-03-05T02:24:33.350Z,13.93
2023-03-05T02:27:02.703Z,13.30
2023-03-05T02:29:31.718Z,13.82
2023-03-05T02:31:58.988Z,14.07
2023-03-05T02:34:26.216Z,14.68
2023-03-05T02:36:55.531Z,14.77
2023-03-05T02:39:22.796Z,14.30
2023-03-05T02:41:49.681Z,13.65
2023-03-05T02:44:16.596Z,13.45
2023-03-05T02:46:43.428Z,13.65
2023-03-05T02:49:10.308Z,14.02
2023-03-05T02:51:37.171Z,13.45
2023-03-05T02:54:04.316Z,13.50
2023-03-05T02:56:31.314Z,13.38
2023-03-05T02:58:58.272Z,15.00
2023-03-05T03:01:28.121Z,13.57
2023-03-05T03:03:55.780Z,14.77
2023-03-05T03:06:22.806Z,14.60
2023-03-05T03:08:49.676Z,13.80
2023-03-05T03:11:17.637Z,14.95
2023-03-05T03:13:44.646Z,13.65
2023-03-05T03:16:15.606Z,14.25
2023-03-05T03:18:44.074Z,14.25
2023-03-05T03:21:23.536Z,13.55
2023-03-05T03:23:50.457Z,14.15
2023-03-05T03:26:17.832Z,15.15
2023-03-05T03:28:45.112Z,14.10
2023-03-05T03:31:12.469Z,13.85
2023-03-05T03:33:39.510Z,14.27
2023-03-05T03:36:07.185Z,13.98
2023-03-05T03:38:34.055Z,16.23
2023-03-05T03:41:00.989Z,14.45
2023-03-05T03:43:27.858Z,13.52
2023-03-05T03:45:54.769Z,14.23
2023-03-05T03:48:21.612Z,14.55
2023-03-05T03:50:48.505Z,14.65
2023-03-05T03:53:17.349Z,15.70
2023-03-05T03:55:46.472Z,14.75
2023-03-05T03:58:13.743Z,14.52
2023-03-05T04:00:41.649Z,14.75
2023-03-05T04:03:09.240Z,13.98
2023-03-05T04:05:36.086Z,13.95
2023-03-05T04:08:03.508Z,15.38
2023-03-05T04:10:30.498Z,16.17
2023-03-05T04:12:57.310Z,15.45
2023-03-05T04:15:25.041Z,13.63
2023-03-05T04:17:51.906Z,14.55
2023-03-05T04:20:18.944Z,15.38
2023-03-05T04:22:45.788Z,14.65
2023-03-05T04:25:12.608Z,14.43
2023-03-05T04:27:40.409Z,15.45
2023-03-05T04:30:11.562Z,12.48
2023-03-05T04:32:38.406Z,13.95
2023-03-05T04:35:05.623Z,14.07
2023-03-05T04:37:33.252Z,14.65
2023-03-05T04:40:00.177Z,13.90
2023-03-05T04:42:27.024Z,14.07
2023-03-05T04:44:53.862Z,13.15
2023-03-05T04:47:20.739Z,13.98
2023-03-05T04:49:47.550Z,13.40
2023-03-05T04:52:15.169Z,12.77
2023-03-05T04:54:44.068Z,13.20
2023-03-05T04:57:11.041Z,14.18
2023-03-05T04:59:38.684Z,12.77
2023-03-05T05:02:06.001Z,13.60
2023-03-05T05:04:33.218Z,13.63
2023-03-05T05:07:00.140Z,12.85
2023-03-05T05:09:27.197Z,12.55
2023-03-05T05:11:54.322Z,12.50
2023-03-05T05:14:21.453Z,12.50
2023-03-05T05:16:48.569Z,12.43
2023-03-05T05:19:15.459Z,13.23
2023-03-05T05:21:42.626Z,12.63
2023-03-05T05:24:09.814Z,14.02
2023-03-05T05:26:36.709Z,12.70
2023-03-05T05:29:03.683Z,12.75
2023-03-05T05:31:30.522Z,14.18
2023-03-05T05:33:59.840Z,12.52
2023-03-05T05:36:26.702Z,12.88
2023-03-05T05:38:54.068Z,11.10
2023-03-05T05:41:21.106Z,13.48
2023-03-05T05:43:48.725Z,13.02
2023-03-05T05:46:19.894Z,13.68
2023-03-05T05:48:47.616Z,12.95
2023-03-05T05:51:21.815Z,12.85
2023-03-05T05:53:49.073Z,13.52
2023-03-05T05:56:17.228Z,12.68
2023-03-05T05:58:47.788Z,12.35
2023-03-05T06:01:31.967Z,12.20
2023-03-05T06:03:59.739Z,12.70
2023-03-05T06:06:28.011Z,12.57
2023-03-05T06:08:55.881Z,12.50
2023-03-05T06:11:23.344Z,13.73
2023-03-05T06:13:50.588Z,11.77
2023-03-05T06:16:24.081Z,12.85
2023-03-05T06:18:52.780Z,12.85
2023-03-05T06:21:21.423Z,12.85
2023-03-05T06:23:49.966Z,12.30
2023-03-05T06:26:21.736Z,13.02
2023-03-05T06:28:48.766Z,11.95
2023-03-05T06:31:21.913Z,13.02
2023-03-05T06:33:50.221Z,11.82
2023-03-05T06:36:19.615Z,12.50
2023-03-05T06:38:48.394Z,12.00
2023-03-05T06:41:20.460Z,12.15
2023-03-05T06:43:49.081Z,12.02
2023-03-05T06:46:20.491Z,11.80
2023-03-05T06:48:48.815Z,12.80
2023-03-05T06:51:21.146Z,12.77
2023-03-05T06:53:49.721Z,11.50
2023-03-05T06:56:18.195Z,11.52
2023-03-05T06:58:47.932Z,11.82
2023-03-05T07:01:16.220Z,10.88
2023-03-05T07:03:44.211Z,11.45
2023-03-05T07:06:14.385Z,10.90
2023-03-05T07:08:42.580Z,11.43
2023-03-05T07:11:17.053Z,11.18
2023-03-05T07:13:47.597Z,10.93
2023-03-05T07:16:17.940Z,13.00
2023-03-05T07:18:45.803Z,12.38
2023-03-05T07:21:19.358Z,12.48
2023-03-05T07:23:46.667Z,10.93
2023-03-05T07:26:14.534Z,12.25
2023-03-05T07:28:41.575Z,10.70
2023-03-05T07:31:13.842Z,12.02
2023-03-05T07:33:40.909Z,11.48
2023-03-05T07:36:09.660Z,12.57
2023-03-05T07:38:36.886Z,12.38
2023-03-05T07:41:10.561Z,12.13
2023-03-05T07:43:37.776Z,12.10
2023-03-05T07:46:11.575Z,12.63
2023-03-05T07:48:38.681Z,11.93
2023-03-05T07:51:16.947Z,12.00
2023-03-05T07:53:46.109Z,11.30
2023-03-05T07:56:13.659Z,11.65
2023-03-05T07:58:40.517Z,11.93
2023-03-05T08:01:16.653Z,11.93
2023-03-05T08:03:44.203Z,10.32
2023-03-05T08:06:12.844Z,11.95
2023-03-05T08:08:39.806Z,10.95
2023-03-05T08:11:11.479Z,11.52
2023-03-05T08:13:38.933Z,11.18
2023-03-05T08:16:08.926Z,11.10
2023-03-05T08:18:36.282Z,11.25
2023-03-05T08:21:03.513Z,11.48
2023-03-05T08:23:31.075Z,11.15
2023-03-05T08:25:57.917Z,10.80
2023-03-05T08:28:24.787Z,11.48
2023-03-05T08:30:51.879Z,11.85
2023-03-05T08:33:18.941Z,11.48
2023-03-05T08:35:46.356Z,11.75
2023-03-05T08:38:13.580Z,11.75
2023-03-05T08:40:40.446Z,11.43
2023-03-05T08:43:07.264Z,11.57
2023-03-05T08:45:34.195Z,11.02
2023-03-05T08:48:01.018Z,11.13
2023-03-05T08:50:27.978Z,10.90
2023-03-05T08:52:56.920Z,11.70
2023-03-05T08:55:23.945Z,11.63
2023-03-05T08:57:50.972Z,12.38
2023-03-05T09:00:18.421Z,11.07
2023-03-05T09:02:45.422Z,11.93
2023-03-05T09:05:12.694Z,11.52
2023-03-05T09:07:39.742Z,11.95
2023-03-05T09:10:10.264Z,11.40
2023-03-05T09:12:37.836Z,12.35
2023-03-05T09:15:08.405Z,12.82
2023-03-05T09:17:36.849Z,13.48
2023-03-05T09:20:06.401Z,12.18
2023-03-05T09:22:33.366Z,12.57
2023-03-05T09:25:00.268Z,12.32
2023-03-05T09:27:27.059Z,11.73
2023-03-05T09:29:53.874Z,12.23
2023-03-05T09:32:20.752Z,12.77
2023-03-05T09:34:47.583Z,12.60
2023-03-05T09:37:14.496Z,13.55
2023-03-05T09:39:41.421Z,11.38
2023-03-05T09:42:27.816Z,11.48
2023-03-05T09:45:17.559Z,11.85
2023-03-05T09:47:57.004Z,11.98
2023-03-05T09:50:46.749Z,11.10
2023-03-05T09:53:28.680Z,11.27
2023-03-05T09:56:04.346Z,10.93
2023-03-05T09:58:51.483Z,12.20
2023-03-05T10:01:27.044Z,11.27
2023-03-05T10:04:09.525Z,11.75
2023-03-05T10:07:04.054Z,11.85
2023-03-05T10:09:56.041Z,11.52
2023-03-05T10:12:42.985Z,11.77
2023-03-05T10:15:35.710Z,11.15
2023-03-05T10:18:20.445Z,11.27
2023-03-05T10:21:11.333Z,11.68
2023-03-05T10:27:08.008Z,9.23
2023-03-05T10:30:04.988Z,11.23
2023-03-05T10:32:53.015Z,12.05
2023-03-05T10:35:42.801Z,10.77
2023-03-05T10:38:32.312Z,10.00
2023-03-05T10:41:27.708Z,10.45
2023-03-05T10:43:57.344Z,10.82
2023-03-05T10:46:34.004Z,12.80
2023-03-05T10:49:32.226Z,11.90
2023-03-05T10:52:36.228Z,11.88
2023-03-05T10:55:19.307Z,11.15
2023-03-05T10:57:46.192Z,11.68
2023-03-05T11:00:26.295Z,12.73
2023-03-05T11:02:59.552Z,12.25
2023-03-05T11:05:38.361Z,12.45
2023-03-05T11:08:28.338Z,12.43
2023-03-05T11:11:17.802Z,11.63
2023-03-05T11:14:01.116Z,10.75
2023-03-05T11:16:32.918Z,10.82
2023-03-05T11:19:22.773Z,9.90
2023-03-05T11:22:21.079Z,10.32
2023-03-05T11:25:11.156Z,9.75
2023-03-05T11:27:52.455Z,10.20
2023-03-05T11:30:26.616Z,10.48
2023-03-05T11:33:10.822Z,9.45
2023-03-05T11:35:42.137Z,11.75
2023-03-05T11:38:24.446Z,10.40
2023-03-05T11:40:54.977Z,9.82
2023-03-05T11:43:25.338Z,9.55
2023-03-05T11:46:02.643Z,10.13
2023-03-05T11:48:37.021Z,10.50
2023-03-05T11:51:20.935Z,11.38
2023-03-05T11:53:56.112Z,12.35
2023-03-05T11:56:31.658Z,13.15
2023-03-05T11:59:18.451Z,11.10
2023-03-05T12:01:55.343Z,10.65
2023-03-05T12:04:24.390Z,10.63
2023-03-05T12:07:02.576Z,10.93
2023-03-05T12:09:51.831Z,10.18
2023-03-05T12:12:55.634Z,10.85
2023-03-05T12:16:01.133Z,11.13
2023-03-05T12:19:10.468Z,10.73
2023-03-05T12:21:41.732Z,10.25
2023-03-05T12:24:25.422Z,12.07
2023-03-05T12:26:53.569Z,10.48
2023-03-05T12:29:51.272Z,10.57
2023-03-05T12:32:31.412Z,8.35
2023-03-05T12:35:00.205Z,8.80
2023-03-05T12:37:27.271Z,8.90
2023-03-05T12:40:20.598Z,7.82
2023-03-05T12:43:06.066Z,7.63
2023-03-05T12:45:40.073Z,7.75
2023-03-05T12:48:11.910Z,8.63
2023-03-05T12:50:38.815Z,8.00
2023-03-05T12:53:20.832Z,7.43
2023-03-05T12:55:59.192Z,7.10
2023-03-05T12:58:42.473Z,7.90
2023-03-05T13:01:12.484Z,7.53
2023-03-05T13:03:53.342Z,8.00
2023-03-05T13:09:03.472Z,7.35
2023-03-05T13:11:34.469Z,7.30
2023-03-05T13:14:02.854Z,7.32
2023-03-05T13:16:38.789Z,8.25
2023-03-05T13:19:17.638Z,6.95
2023-03-05T13:21:44.725Z,7.45
2023-03-05T13:24:19.733Z,8.50
2023-03-05T13:26:46.650Z,7.43
2023-03-05T13:29:16.210Z,6.40
2023-03-05T13:31:56.090Z,6.53
2023-03-05T13:34:46.641Z,6.90
2023-03-05T13:37:22.303Z,6.38
2023-03-05T13:39:58.880Z,6.85
2023-03-05T13:42:32.387Z,6.90
2023-03-05T13:45:06.625Z,7.03
2023-03-05T13:47:36.183Z,7.10
2023-03-05T13:50:22.065Z,6.82
2023-03-05T13:52:48.917Z,6.47
2023-03-05T13:55:17.989Z,6.72
2023-03-05T13:57:52.998Z,6.72
2023-03-05T14:00:38.920Z,6.70
2023-03-05T14:03:27.924Z,6.88
2023-03-05T14:05:55.080Z,6.60
2023-03-05T14:08:25.718Z,6.68
2023-03-05T14:10:59.278Z,8.30
2023-03-05T14:13:31.987Z,7.88
2023-03-05T14:16:25.012Z,7.85
2023-03-05T14:18:59.255Z,7.00
2023-03-05T14:21:48.651Z,7.82
2023-03-05T14:24:25.471Z,7.38
2023-03-05T14:26:57.770Z,7.43
2023-03-05T14:29:28.744Z,7.68
2023-03-05T14:32:06.782Z,8.27
2023-03-05T14:34:36.999Z,7.20
2023-03-05T14:37:17.020Z,7.82
2023-03-05T14:39:56.466Z,7.63
2023-03-05T14:42:38.770Z,7.97
2023-03-05T14:45:20.703Z,7.97
2023-03-05T14:47:47.752Z,8.90
2023-03-05T14:50:29.300Z,9.25
2023-03-05T14:53:03.628Z,7.93
2023-03-05T14:55:32.388Z,7.75
2023-03-05T14:58:14.571Z,8.95
2023-03-05T15:00:42.903Z,8.43
2023-03-05T15:03:14.893Z,7.82
2023-03-05T15:05:44.362Z,8.32
2023-03-05T15:08:17.097Z,7.47
2023-03-05T15:10:44.161Z,8.45
2023-03-05T15:13:14.228Z,8.35
2023-03-05T15:15:43.149Z,9.05
2023-03-05T15:18:16.467Z,8.93
2023-03-05T15:20:45.071Z,8.30
2023-03-05T15:23:12.997Z,8.55
2023-03-05T15:25:40.861Z,9.18
2023-03-05T15:28:08.192Z,8.95
2023-03-05T15:30:42.281Z,8.80
2023-03-05T15:33:17.746Z,9.30
2023-03-05T15:35:45.193Z,10.35
2023-03-05T15:38:12.136Z,9.00
2023-03-05T15:40:39.165Z,8.60
2023-03-05T15:43:05.998Z,8.25
2023-03-05T15:45:32.893Z,10.13
2023-03-05T15:47:59.823Z,9.20
2023-03-05T15:50:26.963Z,9.38
2023-03-05T15:52:53.891Z,9.70
2023-03-05T15:55:24.616Z,10.25
2023-03-05T15:57:53.522Z,8.82
2023-03-05T16:00:28.547Z,8.27
2023-03-05T16:02:55.583Z,8.52
2023-03-05T16:05:23.125Z,8.40
2023-03-05T16:07:53.285Z,8.30
2023-03-05T16:10:25.570Z,8.55
2023-03-05T16:13:08.639Z,8.32
2023-03-05T16:15:37.398Z,7.40
2023-03-05T16:18:10.115Z,7.70
2023-03-05T16:20:37.724Z,7.32
2023-03-05T16:23:05.833Z,6.93
2023-03-05T16:25:33.096Z,7.90
2023-03-05T16:27:59.971Z,7.03
2023-03-05T16:30:26.789Z,7.07
2023-03-05T16:32:53.928Z,6.47
2023-03-05T16:35:21.172Z,6.55
2023-03-05T16:37:48.109Z,5.55
2023-03-05T16:40:15.572Z,6.65
2023-03-05T16:42:43.060Z,6.60
2023-03-05T16:45:12.442Z,6.18
2023-03-05T16:47:40.076Z,5.57
2023-03-05T16:50:09.592Z,6.07
2023-03-05T16:52:37.110Z,5.82
2023-03-05T16:55:06.141Z,5.65
2023-03-05T16:57:33.022Z,5.35
2023-03-05T17:00:02.493Z,5.72
2023-03-05T17:02:29.554Z,5.45
2023-03-05T17:04:57.779Z,5.72
2023-03-05T17:07:26.455Z,5.85
2023-03-05T17:09:54.414Z,6.10
2023-03-05T17:12:22.507Z,5.85
2023-03-05T17:14:49.526Z,5.88
2023-03-05T17:17:16.665Z,6.00
2023-03-05T17:19:43.772Z,6.20
2023-03-05T17:22:12.678Z,5.45
2023-03-05T17:24:42.941Z,6.03
2023-03-05T17:27:11.026Z,5.95
2023-03-05T17:29:38.041Z,6.40
2023-03-05T17:32:06.107Z,6.43
2023-03-05T17:34:36.676Z,7.03
2023-03-05T17:39:32.776Z,4.63
2023-03-05T17:42:00.816Z,5.15
2023-03-05T17:44:27.652Z,5.80
2023-03-05T17:46:54.629Z,5.70
2023-03-05T17:49:21.652Z,6.07
2023-03-05T17:51:48.539Z,5.40
2023-03-05T17:54:15.605Z,6.00
2023-03-05T17:56:42.602Z,6.30
2023-03-05T17:59:09.689Z,6.60
2023-03-05T18:01:36.655Z,6.20
2023-03-05T18:04:03.905Z,6.07
2023-03-05T18:06:31.951Z,6.47
2023-03-05T18:08:59.312Z,5.55
2023-03-05T18:11:27.504Z,6.38
2023-03-05T18:13:54.427Z,5.78
2023-03-05T18:16:23.379Z,6.80
2023-03-05T18:18:50.470Z,5.95
2023-03-05T18:21:25.308Z,5.75
2023-03-05T18:23:52.480Z,5.57
2023-03-05T18:26:19.356Z,5.85
2023-03-05T18:28:46.258Z,5.35
2023-03-05T18:31:13.310Z,5.45
2023-03-05T18:33:40.718Z,5.95
2023-03-05T18:36:10.741Z,6.45
2023-03-05T18:38:38.577Z,6.88
2023-03-05T18:41:06.446Z,6.93
2023-03-05T18:43:33.743Z,5.93
2023-03-05T18:46:04.843Z,6.65
2023-03-05T18:48:31.838Z,7.07
2023-03-05T18:50:59.235Z,6.03
2023-03-05T18:53:26.567Z,6.75
2023-03-05T18:55:53.774Z,6.53
2023-03-05T18:58:20.923Z,7.68
2023-03-05T19:00:49.067Z,6.47
2023-03-05T19:03:18.999Z,8.40
2023-03-05T19:05:47.010Z,8.02
2023-03-05T19:08:13.939Z,7.10
2023-03-05T19:10:40.851Z,6.28
2023-03-05T19:13:39.793Z,7.18
2023-03-05T19:16:17.901Z,5.70
2023-03-05T19:19:11.274Z,5.70
2023-03-05T19:21:39.121Z,5.68
2023-03-05T19:24:07.466Z,5.57
2023-03-05T19:26:35.102Z,5.40
2023-03-05T19:29:02.556Z,5.88
2023-03-05T19:31:29.797Z,5.88
2023-03-05T19:33:56.696Z,6.00
2023-03-05T19:36:23.743Z,6.30
2023-03-05T19:38:50.639Z,6.50
2023-03-05T19:41:19.430Z,6.88
2023-03-05T19:43:47.306Z,6.53
2023-03-05T19:46:14.363Z,7.80
2023-03-05T19:48:42.476Z,7.55
2023-03-05T19:51:12.872Z,7.47
2023-03-05T19:53:41.603Z,6.18
2023-03-05T19:56:09.963Z,5.97
2023-03-05T19:58:38.395Z,6.72
2023-03-05T20:01:14.279Z,6.18
2023-03-05T20:03:44.291Z,6.38
2023-03-05T20:06:11.321Z,6.03
2023-03-05T20:08:38.520Z,6.53
2023-03-05T20:11:06.989Z,7.20
2023-03-05T20:13:34.067Z,7.45
2023-03-05T20:16:01.049Z,7.57
2023-03-05T20:18:28.015Z,7.97
2023-03-05T20:20:58.844Z,8.07
2023-03-05T20:25:52.784Z,6.88
2023-03-05T20:28:26.230Z,8.00
2023-03-05T20:30:59.437Z,6.65
2023-03-05T20:33:28.497Z,9.50
2023-03-05T20:35:56.911Z,7.75
2023-03-05T20:38:31.764Z,7.07
2023-03-05T20:41:05.420Z,8.77
2023-03-05T20:43:36.510Z,8.95
2023-03-05T20:46:05.430Z,8.60
2023-03-05T20:48:34.243Z,8.82
2023-03-05T20:51:19.129Z,9.20
2023-03-05T20:53:46.349Z,9.05
2023-03-05T20:56:13.245Z,8.63
2023-03-05T20:58:40.147Z,8.52
2023-03-05T21:01:07.462Z,9.52
2023-03-05T21:03:34.455Z,8.45
2023-03-05T21:06:04.149Z,8.00
2023-03-05T21:08:31.685Z,8.57
2023-03-05T21:11:00.145Z,8.07
2023-03-05T21:13:27.255Z,8.15
2023-03-05T21:15:54.194Z,8.10
2023-03-05T21:18:21.199Z,8.20
2023-03-05T21:20:48.082Z,8.38
2023-03-05T21:23:15.032Z,8.45
2023-03-05T21:25:42.004Z,8.77
2023-03-05T21:28:17.844Z,9.20
2023-03-05T21:30:49.015Z,8.07
2023-03-05T21:33:23.752Z,9.00
2023-03-05T21:35:52.782Z,8.77
2023-03-05T21:38:23.052Z,8.88
2023-03-05T21:40:52.578Z,9.10
2023-03-05T21:43:23.158Z,8.77
2023-03-05T21:45:53.585Z,8.32
2023-03-05T21:48:22.082Z,9.18
2023-03-05T21:50:50.181Z,7.80
2023-03-05T21:53:19.306Z,8.52
2023-03-05T21:56:03.061Z,8.02
2023-03-05T21:58:34.359Z,9.23
2023-03-05T22:01:02.167Z,8.98
2023-03-05T22:03:29.994Z,8.75
2023-03-05T22:05:57.712Z,9.35
2023-03-05T22:08:25.232Z,9.98
2023-03-05T22:10:52.329Z,8.95
2023-03-05T22:13:20.140Z,8.20
2023-03-05T22:15:53.942Z,9.40
2023-03-05T22:18:28.207Z,9.63
2023-03-05T22:20:56.652Z,9.40
2023-03-05T22:23:28.171Z,9.38
2023-03-05T22:26:07.353Z,9.40
2023-03-05T22:28:36.229Z,10.13
2023-03-05T22:31:03.460Z,9.50
2023-03-05T22:33:31.517Z,9.20
2023-03-05T22:35:58.974Z,10.25
2023-03-05T22:38:26.374Z,9.35
2023-03-05T22:40:53.390Z,10.07
2023-03-05T22:43:20.804Z,9.20
2023-03-05T22:45:48.021Z,9.93
2023-03-05T22:48:15.127Z,10.27
2023-03-05T22:50:46.428Z,10.88
2023-03-05T22:53:13.403Z,11.77
2023-03-05T22:55:42.185Z,11.18
2023-03-05T22:58:09.316Z,11.10
2023-03-05T23:00:36.297Z,10.88
2023-03-05T23:03:03.454Z,11.40
2023-03-05T23:05:30.410Z,11.90
2023-03-05T23:07:57.286Z,11.02
2023-03-05T23:10:28.576Z,10.10
2023-03-05T23:12:58.597Z,9.68
2023-03-05T23:15:35.932Z,8.98
2023-03-05T23:18:06.280Z,9.40
2023-03-05T23:20:36.624Z,9.43
2023-03-05T23:23:04.729Z,9.43
2023-03-05T23:25:35.071Z,10.43
2023-03-05T23:28:03.098Z,9.80
2023-03-05T23:30:37.288Z,11.13
2023-03-05T23:33:17.485Z,10.23
2023-03-05T23:35:58.848Z,9.85
2023-03-05T23:38:29.803Z,9.65
2023-03-05T23:41:01.339Z,8.98
2023-03-05T23:43:28.923Z,9.40
2023-03-05T23:45:56.799Z,8.10
2023-03-05T23:48:26.419Z,9.77
2023-03-05T23:50:53.993Z,8.23
2023-03-05T23:53:28.805Z,9.48
2023-03-05T23:55:56.133Z,8.85
2023-03-05T23:58:23.982Z,8.20
